Time;durP1;ratioP1;P1;durP2;ratioP2;P2;SDS_P1;SDS_P2;PMS_P1;PMS_P2;Temp;Humidity;BMP_temperature;BMP_pressure;BME280_temperature;BME280_humidity;BME280_pressure;Samples;Min_cycle;Max_cycle;Signal;HPM_P1;HPM_P2
2022/05/26 00:02:35;;;;;;;8.57;4.28;;;;;;;;;;5111292;27;20556;-70
2022/05/26 00:05:38;;;;;;;7.53;3.80;;;;;;;;;;5110791;27;20109;-70
2022/05/26 00:08:28;;;;;;;6.20;3.60;;;;;;;;;;5111438;27;20388;-72
2022/05/26 00:10:54;;;;;;;6.57;3.45;;;;;;;;;;5111469;28;20028;-71
2022/05/26 00:13:21;;;;;;;7.13;4.03;;;;;;;;;;5110723;28;20478;-71
2022/05/26 00:15:47;;;;;;;8.95;3.75;;;;;;;;;;5111199;28;20395;-72
2022/05/26 00:18:43;;;;;;;7.40;3.60;;;;;;;;;;5110823;27;20385;-70
2022/05/26 00:22:10;;;;;;;6.65;3.95;;;;;;;;;;5111736;27;20426;-70
2022/05/26 00:25:36;;;;;;;9.38;4.43;;;;;;;;;;5111334;27;20573;-69
2022/05/26 00:28:02;;;;;;;7.85;4.53;;;;;;;;;;5109987;28;20024;-71
2022/05/26 00:30:28;;;;;;;10.40;4.03;;;;;;;;;;5111122;28;20472;-70
2022/05/26 00:33:54;;;;;;;;;;;;;;;;;;5111297;27;20668;-69
2022/05/26 00:41:57;;;;;;;;;;;;;;;;;;5092094;27;19916;-70
2022/05/26 00:45:24;;;;;;;;;;;;;;;;;;5092121;27;20266;-71
2022/05/26 00:52:36;;;;;;;;;;;;;;;;;;5091568;27;19916;-70
2022/05/26 00:55:02;;;;;;;;;;;;;;;;;;5091052;28;20452;-70
2022/05/26 00:58:42;;;;;;;;;;;;;;;;;;5091679;27;19939;-70
2022/05/26 01:02:05;;;;;;;;;;;;;;;;;;5091002;27;19922;-70
2022/05/26 01:04:31;;;;;;;;;;;;;;;;;;5091279;28;19918;-70
2022/05/26 01:14:27;;;;;;;;;;;;;;;;;;5091060;27;19916;-70
2022/05/26 01:17:16;;;;;;;;;;;;;;;;;;5091608;28;19916;-70
2022/05/26 01:20:54;;;;;;;;;;;;;;;;;;5091336;27;19913;-70
2022/05/26 01:24:27;;;;;;;;;;;;;;;;;;5092165;27;20357;-70
2022/05/26 01:26:53;;;;;;;;;;;;;;;;;;5091287;28;20015;-70
2022/05/26 01:29:19;;;;;;;;;;;;;;;;;;5090831;28;20296;-71
2022/05/26 01:35:07;;;;;;;;;;;;;;;;;;5091684;28;19917;-69
2022/05/26 01:37:33;;;;;;;;;;;;;;;;;;5090865;28;20022;-69
2022/05/26 01:39:59;;;;;;;;;;;;;;;;;;5091473;28;19915;-70
2022/05/26 01:42:25;;;;;;;;;;;;;;;;;;5091264;28;19908;-70
2022/05/26 01:44:51;;;;;;;;;;;;;;;;;;5091545;28;20003;-70
2022/05/26 01:51:04;;;;;;;;;;;;;;;;;;5091061;28;19912;-70
2022/05/26 01:54:56;;;;;;;;;;;;;;;;;;5092089;28;20361;-70
2022/05/26 01:57:22;;;;;;;;;;;;;;;;;;5090915;28;19987;-69
2022/05/26 02:00:47;;;;;;;;;;;;;;;;;;5092185;27;20270;-70
2022/05/26 02:04:41;;;;;;;;;;;;;;;;;;5091355;27;19916;-70
2022/05/26 02:07:07;;;;;;;;;;;;;;;;;;5091272;28;20003;-70
2022/05/26 02:09:38;;;;;;;;;;;;;;;;;;5091556;28;19909;-70
2022/05/26 02:13:38;;;;;;;;;;;;;;;;;;5092089;28;20284;-70
2022/05/26 02:16:04;;;;;;;;;;;;;;;;;;5091321;28;19928;-70
2022/05/26 02:19:14;;;;;;;;;;;;;;;;;;5091164;27;19917;-70
2022/05/26 02:23:56;;;;;;;;;;;;;;;;;;5091447;27;20424;-70
2022/05/26 02:26:21;;;;;;;;;;;;;;;;;;5090884;28;20011;-70
2022/05/26 02:31:33;;;;;;;;;;;;;;;;;;5091261;28;19916;-70
2022/05/26 02:34:54;;;;;;;;;;;;;;;;;;5091779;28;19916;-70
2022/05/26 02:37:20;;;;;;;;;;;;;;;;;;5091717;28;20349;-70
2022/05/26 02:39:47;;;;;;;;;;;;;;;;;;5090852;28;19908;-70
2022/05/26 02:42:55;;;;;;;;;;;;;;;;;;5091958;27;20300;-70
2022/05/26 02:50:38;;;;;;;;;;;;;;;;;;5091433;27;19914;-70
2022/05/26 02:55:49;;;;;;;;;;;;;;;;;;5091823;27;19917;-70
2022/05/26 02:58:15;;;;;;;;;;;;;;;;;;5091595;28;20358;-70
2022/05/26 03:00:41;;;;;;;;;;;;;;;;;;5091188;28;19954;-70
2022/05/26 03:03:07;;;;;;;;;;;;;;;;;;5091225;28;19915;-70
2022/05/26 03:06:54;;;;;;;;;;;;;;;;;;5152481;27;20291;-70
2022/05/26 03:10:41;;;;;;;;;;;;;;;;;;5091890;27;20308;-70
2022/05/26 03:14:33;;;;;;;;;;;;;;;;;;5091299;27;19916;-70
2022/05/26 03:18:35;;;;;;;;;;;;;;;;;;5092195;27;19916;-70
2022/05/26 03:21:01;;;;;;;;;;;;;;;;;;5090887;28;19995;-70
2022/05/26 03:23:27;;;;;;;;;;;;;;;;;;5091181;28;19908;-70
2022/05/26 03:25:52;;;;;;;;;;;;;;;;;;5091049;28;20299;-70
2022/05/26 03:30:53;;;;;;;;;;;;;;;;;;5112159;27;20006;-70
2022/05/26 03:33:19;;;;;;;;;;;;;;;;;;5111601;28;20356;-70
2022/05/26 03:42:28;;;;;;;;;;;;;;;;;;5090922;28;20004;-69
2022/05/26 03:44:54;;;;;;;;;;;;;;;;;;5091267;28;19940;-70
2022/05/26 03:47:20;;;;;;;;;;;;;;;;;;5091206;28;19913;-70
2022/05/26 03:49:46;;;;;;;;;;;;;;;;;;5090740;28;20356;-70
2022/05/26 03:52:12;;;;;;;;;;;;;;;;;;5089760;28;20304;-70
2022/05/26 03:55:58;;;;;;;;;;;;;;;;;;5091888;27;19916;-69
2022/05/26 03:58:24;;;;;;;;;;;;;;;;;;5090979;28;20003;-70
2022/05/26 04:01:51;;;;;;;;;;;;;;;;;;5091901;28;20270;-70
2022/05/26 04:04:17;;;;;;;;;;;;;;;;;;5091165;28;20003;-70
2022/05/26 04:06:43;;;;;;;;;;;;;;;;;;5091243;28;19908;-69
2022/05/26 04:12:42;;;;;;;;;;;;;;;;;;5092201;27;19923;-70
2022/05/26 04:15:08;;;;;;;;;;;;;;;;;;5091441;28;19919;-67
2022/05/26 04:17:34;;;;;;;;;;;;;;;;;;5090900;28;19908;-69
2022/05/26 04:22:54;;;;;;;;;;;;;;;;;;5132475;27;20005;-69
2022/05/26 04:25:22;;;;;;;;;;;;;;;;;;5132050;28;19962;-68
2022/05/26 04:27:48;;;;;;;;;;;;;;;;;;5132075;27;20368;-67
2022/05/26 04:30:14;;;;;;;;;;;;;;;;;;5132081;27;19914;-67
2022/05/26 04:32:40;;;;;;;;;;;;;;;;;;5131610;27;19918;-67
2022/05/26 04:38:04;;;;;;;;;;;;;;;;;;5091811;27;19916;-67
2022/05/26 04:40:30;;;;;;;;;;;;;;;;;;5090969;28;20448;-67
2022/05/26 04:47:04;;;;;;;;;;;;;;;;;;5091059;27;19913;-66
2022/05/26 04:49:30;;;;;;;;;;;;;;;;;;5091516;28;20007;-67
2022/05/26 04:51:56;;;;;;;;;;;;;;;;;;5091238;28;19913;-66
2022/05/26 04:54:22;;;;;;;;;;;;;;;;;;5090757;28;19913;-66
2022/05/26 04:56:48;;;;;;;;;;;;;;;;;;5091090;28;19909;-67
2022/05/26 04:59:14;;;;;;;;;;;;;;;;;;5091113;28;19915;-67
2022/05/26 05:01:41;;;;;;;;;;;;;;;;;;5090632;28;19909;-67
2022/05/26 05:04:07;;;;;;;;;;;;;;;;;;5091211;28;19943;-66
2022/05/26 05:11:45;;;;;;;;;;;;;;;;;;5173923;27;20327;-66
2022/05/26 05:14:11;;;;;;;;;;;;;;;;;;5172695;27;19961;-66
2022/05/26 05:17:52;;;;;;;;;;;;;;;;;;5150929;27;19921;-67
2022/05/26 05:20:18;;;;;;;;;;;;;;;;;;5146496;27;19911;-72
2022/05/26 05:22:44;;;;;;;;;;;;;;;;;;5146045;27;19956;-71
2022/05/26 05:25:10;;;;;;;;;;;;;;;;;;5149174;27;20375;-72
2022/05/26 05:28:04;;;;;;;;;;;;;;;;;;5081860;28;19917;-72
2022/05/26 05:30:30;;;;;;;;;;;;;;;;;;5080533;28;20013;-73
2022/05/26 05:32:56;;;;;;;;;;;;;;;;;;5102919;28;19908;-73
2022/05/26 05:35:22;;;;;;;;;;;;;;;;;;5104740;28;20372;-73
2022/05/26 05:37:48;;;;;;;;;;;;;;;;;;5100106;28;20265;-76
2022/05/26 05:40:14;;;;;;;;;;;;;;;;;;5084817;28;19966;-72
2022/05/26 05:43:13;;;;;;;;;;;;;;;;;;5080334;28;20278;-71
2022/05/26 05:46:01;;;;;;;;;;;;;;;;;;5086790;27;19920;-74
2022/05/26 05:48:27;;;;;;;;;;;;;;;;;;5085976;28;20010;-72
2022/05/26 05:50:53;;;;;;;;;;;;;;;;;;5088662;28;20023;-71
2022/05/26 05:53:19;;;;;;;;;;;;;;;;;;5086280;28;19962;-71
2022/05/26 05:55:45;;;;;;;;;;;;;;;;;;5085957;28;19912;-71
2022/05/26 05:59:14;;;;;;;;;;;;;;;;;;5075342;27;20428;-71
2022/05/26 06:03:40;;;;;;;;;;;;;;;;;;5077452;27;19927;-71
2022/05/26 06:06:09;;;;;;;;;;;;;;;;;;5071969;28;19917;-70
2022/05/26 06:08:35;;;;;;;;;;;;;;;;;;5076590;28;19947;-71
2022/05/26 06:11:01;;;;;;;;;;;;;;;;;;5074943;28;19944;-71
2022/05/26 06:13:27;;;;;;;;;;;;;;;;;;5089530;28;20420;-70
2022/05/26 06:16:29;;;;;;;;;;;;;;;;;;5078983;27;20300;-71
2022/05/26 06:18:55;;;;;;;;;;;;;;;;;;5063842;28;19917;-71
2022/05/26 06:21:21;;;;;;;;;;;;;;;;;;5062087;28;19951;-72
2022/05/26 06:23:48;;;;;;;;;;;;;;;;;;5088401;28;19920;-72
2022/05/26 06:26:14;;;;;;;;;;;;;;;;;;5085968;28;19912;-71
2022/05/26 06:40:22;;;;;;;;;;;;;;;;;;5087584;27;19917;-71
2022/05/26 06:42:48;;;;;;;;;;;;;;;;;;5086621;28;19912;-74
2022/05/26 06:45:14;;;;;;;;;;;;;;;;;;5088470;28;19920;-73
2022/05/26 06:49:31;;;;;;;;;;;;;;;;;;5047477;28;19927;-74
2022/05/26 06:51:57;;;;;;;;;;;;;;;;;;5047773;28;19944;-71
2022/05/26 06:54:23;;;;;;;;;;;;;;;;;;5048056;28;19909;-72
2022/05/26 06:58:08;;;;;;;;;;;;;;;;;;5082891;27;19921;-72
2022/05/26 07:00:34;;;;;;;;;;;;;;;;;;5070545;28;19965;-72
2022/05/26 07:03:00;;;;;;;;;;;;;;;;;;5070644;28;19913;-73
2022/05/26 07:05:26;;;;;;;;;;;;;;;;;;5064938;28;20003;-73
2022/05/26 07:07:54;;;;;;;;;;;;;;;;;;5069419;28;19913;-72
2022/05/26 07:10:20;;;;;;;;;;;;;;;;;;5079198;28;19912;-73
2022/05/26 07:14:02;;;;;;;;;;;;;;;;;;5119743;27;19920;-72
2022/05/26 07:16:28;;;;;;;;;;;;;;;;;;5096536;28;19919;-72
2022/05/26 07:18:55;;;;;;;;;;;;;;;;;;5098675;28;19916;-71
2022/05/26 07:23:48;;;;;;;;;;;;;;;;;;5105504;27;19916;-72
2022/05/26 07:26:15;;;;;;;;;;;;;;;;;;5109010;28;19916;-73
2022/05/26 07:28:41;;;;;;;;;;;;;;;;;;5126482;27;19908;-72
2022/05/26 07:31:07;;;;;;;;;;;;;;;;;;5129469;27;19914;-72
2022/05/26 07:33:33;;;;;;;;;;;;;;;;;;5129608;28;19911;-72
2022/05/26 07:35:59;;;;;;;;;;;;;;;;;;5127521;27;19912;-72
2022/05/26 07:41:19;;;;;;;;;;;;;;;;;;5108969;28;19957;-69
2022/05/26 07:43:47;;;;;;;;;;;;;;;;;;5128696;28;19936;-69
2022/05/26 07:50:01;;;;;;;;;;;;;;;;;;5088687;28;19916;-71
2022/05/26 07:52:27;;;;;;;;;;;;;;;;;;5090479;28;20624;-70
2022/05/26 07:54:53;;;;;;;;;;;;;;;;;;5090326;28;19908;-70
2022/05/26 07:57:20;;;;;;;;;;;;;;;;;;5088044;28;20003;-70
2022/05/26 07:59:46;;;;;;;;;;;;;;;;;;5077696;28;19908;-71
2022/05/26 08:02:12;;;;;;;;;;;;;;;;;;5088431;28;20677;-70
2022/05/26 08:04:38;;;;;;;;;;;;;;;;;;5089468;28;20311;-70
2022/05/26 08:07:04;;;;;;;;;;;;;;;;;;5087202;28;19912;-70
2022/05/26 08:09:30;;;;;;;;;;;;;;;;;;5087167;28;19923;-70
2022/05/26 08:11:56;;;;;;;;;;;;;;;;;;5083016;28;19916;-71
2022/05/26 08:14:22;;;;;;;;;;;;;;;;;;5086088;28;19932;-71
2022/05/26 08:16:48;;;;;;;;;;;;;;;;;;5083824;28;20496;-70
2022/05/26 08:20:48;;;;;;;;;;;;;;;;;;5079970;28;19917;-69
2022/05/26 08:23:13;;;;;;;;;;;;;;;;;;5080553;28;19919;-71
2022/05/26 08:25:39;;;;;;;;;;;;;;;;;;5079836;28;19916;-69
2022/05/26 08:28:05;;;;;;;;;;;;;;;;;;5080952;28;19920;-70
2022/05/26 08:32:13;;;;;;;;;;;;;;;;;;5082623;27;20385;-70
2022/05/26 08:34:39;;;;;;;;;;;;;;;;;;5086839;28;19913;-70
2022/05/26 08:37:33;;;;;;;;;;;;;;;;;;5089759;27;19920;-70
2022/05/26 08:39:59;;;;;;;;;;;;;;;;;;5089355;28;19918;-70
2022/05/26 08:42:25;;;;;;;;;;;;;;;;;;5089166;28;20341;-71
2022/05/26 08:44:53;;;;;;;;;;;;;;;;;;5087968;28;19963;-69
2022/05/26 08:47:21;;;;;;;;;;;;;;;;;;5089443;28;20307;-69
2022/05/26 08:49:47;;;;;;;;;;;;;;;;;;5074394;28;20401;-70
2022/05/26 08:52:13;;;;;;;;;;;;;;;;;;5065822;28;19920;-69
2022/05/26 08:54:39;;;;;;;;;;;;;;;;;;5083427;28;19916;-70
2022/05/26 08:57:05;;;;;;;;;;;;;;;;;;5084705;28;19942;-68
2022/05/26 08:59:31;;;;;;;;;;;;;;;;;;5085732;28;19987;-69
2022/05/26 09:01:57;;;;;;;;;;;;;;;;;;5085710;28;19915;-68
2022/05/26 09:04:23;;;;;;;;;;;;;;;;;;5087230;28;20281;-68
2022/05/26 09:15:03;;;;;;;;;;;;;;;;;;5066762;28;19919;-68
2022/05/26 09:17:29;;;;;;;;;;;;;;;;;;5067187;28;19913;-70
2022/05/26 09:19:56;;;;;;;;;;;;;;;;;;5062983;28;19912;-68
2022/05/26 09:22:21;;;;;;;;;;;;;;;;;;5061693;28;20000;-70
2022/05/26 09:24:47;;;;;;;;;;;;;;;;;;5097167;28;20413;-68
2022/05/26 09:27:13;;;;;;;;;;;;;;;;;;5064880;28;20584;-69
2022/05/26 09:29:39;;;;;;;;;;;;;;;;;;5064715;28;19995;-70
2022/05/26 09:32:05;;;;;;;;;;;;;;;;;;5067979;28;20434;-70
2022/05/26 09:34:34;;;;;;;;;;;;;;;;;;5065966;28;20471;-70
2022/05/26 09:37:00;;;;;;;;;;;;;;;;;;5066574;28;19978;-70
2022/05/26 09:39:30;;;;;;;;;;;;;;;;;;5069186;28;19908;-69
2022/05/26 09:41:56;;;;;;;;;;;;;;;;;;5065863;28;20024;-70
2022/05/26 09:44:22;;;;;;;;;;;;;;;;;;5066459;28;20365;-71
2022/05/26 09:46:48;;;;;;;;;;;;;;;;;;5066264;28;19934;-70
2022/05/26 09:49:14;;;;;;;;;;;;;;;;;;5070468;28;19916;-69
2022/05/26 09:51:40;;;;;;;;;;;;;;;;;;5072527;28;19923;-71
2022/05/26 09:54:07;;;;;;;;;;;;;;;;;;5053091;28;19913;-70
2022/05/26 09:56:33;;;;;;;;;;;;;;;;;;5052314;28;19927;-69
2022/05/26 09:58:59;;;;;;;;;;;;;;;;;;5053062;28;20373;-71
2022/05/26 10:01:26;;;;;;;;;;;;;;;;;;5052901;28;19948;-70
2022/05/26 10:03:52;;;;;;;;;;;;;;;;;;5053095;28;19920;-71
2022/05/26 10:06:18;;;;;;;;;;;;;;;;;;5070152;28;19916;-71
2022/05/26 10:08:43;;;;;;;;;;;;;;;;;;5070714;28;19920;-71
2022/05/26 10:11:09;;;;;;;;;;;;;;;;;;5059969;28;19912;-71
2022/05/26 10:13:35;;;;;;;;;;;;;;;;;;5057451;28;20006;-70
2022/05/26 10:16:01;;;;;;;;;;;;;;;;;;5057005;28;19917;-69
2022/05/26 10:18:27;;;;;;;;;;;;;;;;;;5050416;28;19924;-68
2022/05/26 10:20:53;;;;;;;;;;;;;;;;;;5051693;28;19955;-70
2022/05/26 10:23:19;;;;;;;;;;;;;;;;;;5061076;28;20429;-70
2022/05/26 10:25:45;;;;;;;;;;;;;;;;;;5064799;28;19913;-70
2022/05/26 10:28:11;;;;;;;;;;;;;;;;;;5052811;28;20022;-71
2022/05/26 10:30:37;;;;;;;;;;;;;;;;;;5052703;28;19916;-71
2022/05/26 10:33:03;;;;;;;;;;;;;;;;;;5052356;28;19913;-71
2022/05/26 10:35:29;;;;;;;;;;;;;;;;;;5053483;28;19950;-69
2022/05/26 10:37:55;;;;;;;;;;;;;;;;;;5087386;28;19912;-70
2022/05/26 10:40:21;;;;;;;;;;;;;;;;;;5086386;28;19913;-78
2022/05/26 10:42:47;;;;;;;;;;;;;;;;;;5073281;28;20357;-72
2022/05/26 10:45:13;;;;;;;;;;;;;;;;;;5069995;28;19912;-77
2022/05/26 10:47:39;;;;;;;;;;;;;;;;;;5080092;28;19924;-76
2022/05/26 10:50:06;;;;;;;;;;;;;;;;;;5071321;28;19913;-72
2022/05/26 10:52:32;;;;;;;;;;;;;;;;;;5073440;28;19917;-74
2022/05/26 10:54:58;;;;;;;;;;;;;;;;;;5068571;28;20057;-71
2022/05/26 10:57:25;;;;;;;;;;;;;;;;;;5067534;28;19916;-73
2022/05/26 10:59:51;;;;;;;;;;;;;;;;;;5070327;28;20053;-72
2022/05/26 11:02:17;;;;;;;;;;;;;;;;;;5075601;28;19991;-74
2022/05/26 11:04:43;;;;;;;;;;;;;;;;;;5084187;28;19923;-76
2022/05/26 11:07:09;;;;;;;;;;;;;;;;;;5075051;28;19908;-73
2022/05/26 11:09:35;;;;;;;;;;;;;;;;;;5065711;28;20006;-72
2022/05/26 11:12:01;;;;;;;;;;;;;;;;;;5065118;28;19909;-73
2022/05/26 11:17:24;;;;;;;;;;;;;;;;;;5068496;28;19970;-72
2022/05/26 11:19:50;;;;;;;;;;;;;;;;;;5067856;28;19916;-70
2022/05/26 11:22:16;;;;;;;;;;;;;;;;;;5088100;28;19912;-72
2022/05/26 11:24:42;;;;;;;;;;;;;;;;;;5074198;28;19908;-73
2022/05/26 11:27:08;;;;;;;;;;;;;;;;;;5078699;28;19912;-74
2022/05/26 11:29:34;;;;;;;;;;;;;;;;;;5094234;28;19940;-73
2022/05/26 11:37:29;;;;;;;;;;;;;;;;;;5075101;28;20284;-74
2022/05/26 11:39:55;;;;;;;;;;;;;;;;;;5071715;28;19909;-73
2022/05/26 11:42:21;;;;;;;;;;;;;;;;;;5075104;28;19912;-74
2022/05/26 11:44:47;;;;;;;;;;;;;;;;;;5092053;28;19908;-72
2022/05/26 11:47:13;;;;;;;;;;;;;;;;;;5091759;28;20014;-74
2022/05/26 11:49:39;;;;;;;;;;;;;;;;;;5091655;28;19977;-74
2022/05/26 11:52:05;;;;;;;;;;;;;;;;;;5092912;28;19916;-74
2022/05/26 11:54:31;;;;;;;;;;;;;;;;;;5093811;28;19999;-74
2022/05/26 11:56:57;;;;;;;;;;;;;;;;;;5093896;28;19962;-73
2022/05/26 11:59:23;;;;;;;;;;;;;;;;;;5094227;28;19918;-74
2022/05/26 12:01:49;;;;;;;;;;;;;;;;;;5093607;28;19908;-74
2022/05/26 12:04:15;;;;;;;;;;;;;;;;;;5093316;28;19915;-74
2022/05/26 12:06:41;;;;;;;;;;;;;;;;;;5093849;28;19908;-74
2022/05/26 12:09:07;;;;;;;;;;;;;;;;;;5093425;28;19908;-74
2022/05/26 12:11:33;;;;;;;;;;;;;;;;;;5093596;28;20242;-74
2022/05/26 12:13:59;;;;;;;;;;;;;;;;;;5093879;28;20268;-74
2022/05/26 12:16:25;;;;;;;;;;;;;;;;;;5093395;28;20296;-74
2022/05/26 12:18:51;;;;;;;;;;;;;;;;;;5093418;28;19908;-74
2022/05/26 12:21:17;;;;;;;;;;;;;;;;;;5093841;28;19908;-75
2022/05/26 12:23:43;;;;;;;;;;;;;;;;;;5085691;28;19928;-73
2022/05/26 12:26:09;;;;;;;;;;;;;;;;;;5062513;28;19935;-75
2022/05/26 12:28:35;;;;;;;;;;;;;;;;;;5053517;28;19908;-74
2022/05/26 12:31:01;;;;;;;;;;;;;;;;;;5091632;28;19918;-74
2022/05/26 12:33:27;;;;;;;;;;;;;;;;;;5091459;28;19919;-74
2022/05/26 12:35:53;;;;;;;;;;;;;;;;;;5071943;28;20427;-73
2022/05/26 12:38:19;;;;;;;;;;;;;;;;;;5085439;28;19915;-74
2022/05/26 12:40:45;;;;;;;;;;;;;;;;;;5079113;28;19965;-72
2022/05/26 12:43:11;;;;;;;;;;;;;;;;;;5091133;28;19908;-71
2022/05/26 12:45:38;;;;;;;;;;;;;;;;;;5091693;28;20272;-71
2022/05/26 12:48:04;;;;;;;;;;;;;;;;;;5070408;28;19963;-71
2022/05/26 12:50:31;;;;;;;;;;;;;;;;;;5071503;28;19987;-72
2022/05/26 12:52:57;;;;;;;;;;;;;;;;;;5071083;28;19943;-71
2022/05/26 12:55:23;;;;;;;;;;;;;;;;;;5071570;28;19915;-70
2022/05/26 12:57:49;;;;;;;;;;;;;;;;;;5072352;28;19909;-71
2022/05/26 13:00:15;;;;;;;;;;;;;;;;;;5073346;28;20277;-70
2022/05/26 13:02:41;;;;;;;;;;;;;;;;;;5072615;28;20298;-71
2022/05/26 13:05:07;;;;;;;;;;;;;;;;;;5072245;28;20392;-70
2022/05/26 13:07:33;;;;;;;;;;;;;;;;;;5073265;28;19919;-70
2022/05/26 13:09:59;;;;;;;;;;;;;;;;;;5073260;28;19908;-71
2022/05/26 13:12:25;;;;;;;;;;;;;;;;;;5072808;28;19990;-71
2022/05/26 13:14:51;;;;;;;;;;;;;;;;;;5073104;28;19909;-71
2022/05/26 13:17:17;;;;;;;;;;;;;;;;;;5073172;28;19917;-71
2022/05/26 13:19:43;;;;;;;;;;;;;;;;;;5072695;28;19935;-71
2022/05/26 13:22:09;;;;;;;;;;;;;;;;;;5073323;28;19909;-71
2022/05/26 13:24:35;;;;;;;;;;;;;;;;;;5076969;28;20273;-71
2022/05/26 13:27:01;;;;;;;;;;;;;;;;;;5058547;28;20335;-71
2022/05/26 13:29:27;;;;;;;;;;;;;;;;;;5076806;28;19931;-71
2022/05/26 13:34:37;;;;;;;;;;;;;;;;;;5076418;28;19915;-71
2022/05/26 13:37:03;;;;;;;;;;;;;;;;;;5076326;28;19921;-71
2022/05/26 13:39:29;;;;;;;;;;;;;;;;;;5076588;28;19947;-71
2022/05/26 13:41:55;;;;;;;;;;;;;;;;;;5076310;28;20384;-71
2022/05/26 13:44:21;;;;;;;;;;;;;;;;;;5076529;28;20486;-70
2022/05/26 13:46:47;;;;;;;;;;;;;;;;;;5076515;28;19951;-71
2022/05/26 13:49:16;;;;;;;;;;;;;;;;;;5076056;28;19909;-70
2022/05/26 13:51:42;;;;;;;;;;;;;;;;;;5076474;28;20322;-71
2022/05/26 13:54:08;;;;;;;;;;;;;;;;;;5075848;28;19999;-70
2022/05/26 13:56:36;;;;;;;;;;;;;;;;;;5076776;28;20379;-70
2022/05/26 13:59:02;;;;;;;;;;;;;;;;;;5058214;28;19920;-70
2022/05/26 14:01:28;;;;;;;;;;;;;;;;;;5075689;28;19909;-70
2022/05/26 14:03:54;;;;;;;;;;;;;;;;;;5076100;28;20329;-70
2022/05/26 14:06:20;;;;;;;;;;;;;;;;;;5076394;28;20005;-71
2022/05/26 14:08:46;;;;;;;;;;;;;;;;;;5075759;28;19942;-70
2022/05/26 14:11:12;;;;;;;;;;;;;;;;;;5076047;28;20393;-71
2022/05/26 14:13:38;;;;;;;;;;;;;;;;;;5074716;28;20336;-70
2022/05/26 14:16:04;;;;;;;;;;;;;;;;;;5064852;28;20399;-71
2022/05/26 14:18:30;;;;;;;;;;;;;;;;;;5061308;28;19912;-71
2022/05/26 14:20:56;;;;;;;;;;;;;;;;;;5055894;28;19909;-71
2022/05/26 14:23:22;;;;;;;;;;;;;;;;;;5055553;28;19998;-70
2022/05/26 14:25:48;;;;;;;;;;;;;;;;;;5071234;28;20339;-71
2022/05/26 14:28:14;;;;;;;;;;;;;;;;;;5056004;28;19915;-72
2022/05/26 14:30:40;;;;;;;;;;;;;;;;;;5070779;28;20286;-72
2022/05/26 14:33:06;;;;;;;;;;;;;;;;;;5055529;28;20021;-72
2022/05/26 14:35:32;;;;;;;;;;;;;;;;;;5055584;28;19913;-69
2022/05/26 14:37:58;;;;;;;;;;;;;;;;;;5055197;28;20014;-72
2022/05/26 14:40:24;;;;;;;;;;;;;;;;;;5055438;28;20281;-70
2022/05/26 14:42:50;;;;;;;;;;;;;;;;;;5055381;28;19954;-72
2022/05/26 14:45:16;;;;;;;;;;;;;;;;;;5055018;28;19908;-72
2022/05/26 14:47:42;;;;;;;;;;;;;;;;;;5055342;28;19999;-70
2022/05/26 14:50:08;;;;;;;;;;;;;;;;;;5055260;28;19966;-71
2022/05/26 14:52:34;;;;;;;;;;;;;;;;;;5054925;28;19909;-70
2022/05/26 14:57:46;;;;;;;;;;;;;;;;;;5054776;28;19999;-69
2022/05/26 15:00:12;;;;;;;;;;;;;;;;;;5055121;28;19913;-70
2022/05/26 15:02:38;;;;;;;;;;;;;;;;;;5055111;28;19909;-70
2022/05/26 15:05:05;;;;;;;;;;;;;;;;;;5054578;28;19962;-70
2022/05/26 15:07:31;;;;;;;;;;;;;;;;;;5055199;28;19971;-70
2022/05/26 15:09:57;;;;;;;;;;;;;;;;;;5070731;28;19916;-70
2022/05/26 15:12:23;;;;;;;;;;;;;;;;;;5067488;28;20448;-69
2022/05/26 15:14:49;;;;;;;;;;;;;;;;;;5059931;28;19970;-70
2022/05/26 15:17:15;;;;;;;;;;;;;;;;;;5054759;28;19917;-71
2022/05/26 15:19:41;;;;;;;;;;;;;;;;;;5054367;28;20353;-70
2022/05/26 15:22:07;;;;;;;;;;;;;;;;;;5070051;28;19909;-70
2022/05/26 15:24:33;;;;;;;;;;;;;;;;;;5054454;28;19913;-71
2022/05/26 15:26:59;;;;;;;;;;;;;;;;;;5054166;28;19916;-70
2022/05/26 15:29:25;;;;;;;;;;;;;;;;;;5054616;28;19908;-70
2022/05/26 15:31:51;;;;;;;;;;;;;;;;;;5054496;28;19951;-70
2022/05/26 15:34:17;;;;;;;;;;;;;;;;;;5054166;28;20361;-70
2022/05/26 15:36:43;;;;;;;;;;;;;;;;;;5054095;28;19925;-70
2022/05/26 15:39:09;;;;;;;;;;;;;;;;;;5053507;28;19915;-70
2022/05/26 15:41:35;;;;;;;;;;;;;;;;;;5053099;28;20281;-70
2022/05/26 15:44:01;;;;;;;;;;;;;;;;;;5052251;28;19915;-70
2022/05/26 15:46:27;;;;;;;;;;;;;;;;;;5053580;28;20389;-70
2022/05/26 15:48:53;;;;;;;;;;;;;;;;;;5054420;28;19911;-70
2022/05/26 15:51:19;;;;;;;;;;;;;;;;;;5054001;28;20346;-72
2022/05/26 15:53:45;;;;;;;;;;;;;;;;;;5053218;28;19944;-70
2022/05/26 15:56:11;;;;;;;;;;;;;;;;;;5053638;28;19919;-70
2022/05/26 15:58:37;;;;;;;;;;;;;;;;;;5053922;28;19943;-70
2022/05/26 16:01:03;;;;;;;;;;;;;;;;;;5053560;28;19912;-71
2022/05/26 16:03:29;;;;;;;;;;;;;;;;;;5053827;28;19909;-71
2022/05/26 16:05:55;;;;;;;;;;;;;;;;;;5053868;28;20315;-71
2022/05/26 16:08:21;;;;;;;;;;;;;;;;;;5053439;28;19909;-71
2022/05/26 16:10:47;;;;;;;;;;;;;;;;;;5053779;28;19933;-71
2022/05/26 16:13:13;;;;;;;;;;;;;;;;;;5053730;28;19962;-71
2022/05/26 16:15:39;;;;;;;;;;;;;;;;;;5053387;28;19917;-71
2022/05/26 16:18:06;;;;;;;;;;;;;;;;;;5053813;28;20003;-71
2022/05/26 16:20:32;;;;;;;;;;;;;;;;;;5053624;28;19915;-71
2022/05/26 16:22:58;;;;;;;;;;;;;;;;;;5053281;28;20340;-71
2022/05/26 16:25:24;;;;;;;;;;;;;;;;;;5053643;28;19915;-71
2022/05/26 16:27:50;;;;;;;;;;;;;;;;;;5053666;28;20011;-71
2022/05/26 16:30:16;;;;;;;;;;;;;;;;;;5053348;28;19908;-71
2022/05/26 16:32:42;;;;;;;;;;;;;;;;;;5053584;28;19995;-71
2022/05/26 16:37:54;;;;;;;;;;;;;;;;;;5053204;28;19927;-71
2022/05/26 16:40:20;;;;;;;;;;;;;;;;;;5053514;28;19912;-71
2022/05/26 16:42:46;;;;;;;;;;;;;;;;;;5068514;28;19909;-70
2022/05/26 16:45:12;;;;;;;;;;;;;;;;;;5053521;28;19915;-71
2022/05/26 16:47:38;;;;;;;;;;;;;;;;;;5053673;28;20289;-70
2022/05/26 16:50:04;;;;;;;;;;;;;;;;;;5052976;28;19913;-70
2022/05/26 16:52:30;;;;;;;;;;;;;;;;;;5053547;28;20298;-72
2022/05/26 16:54:56;;;;;;;;;;;;;;;;;;5053309;28;19908;-72
2022/05/26 16:57:22;;;;;;;;;;;;;;;;;;5053502;28;19917;-72
2022/05/26 16:59:48;;;;;;;;;;;;;;;;;;5072843;28;19915;-71
2022/05/26 17:02:14;;;;;;;;;;;;;;;;;;5057322;28;19935;-72
2022/05/26 17:04:40;;;;;;;;;;;;;;;;;;5057040;28;19909;-72
2022/05/26 17:07:06;;;;;;;;;;;;;;;;;;5057264;28;20252;-72
2022/05/26 17:09:32;;;;;;;;;;;;;;;;;;5057478;28;19908;-71
2022/05/26 17:11:58;;;;;;;;;;;;;;;;;;5056846;28;19944;-72
2022/05/26 17:22:40;;;;;;;;;;;;;;;;;;5057072;28;19931;-72
2022/05/26 17:25:06;;;;;;;;;;;;;;;;;;5056466;28;19916;-72
2022/05/26 17:27:32;;;;;;;;;;;;;;;;;;5056743;28;19909;-73
2022/05/26 17:29:58;;;;;;;;;;;;;;;;;;5056653;28;19938;-72
2022/05/26 17:32:24;;;;;;;;;;;;;;;;;;5056180;28;19954;-71
2022/05/26 17:34:50;;;;;;;;;;;;;;;;;;5056813;28;19915;-71
2022/05/26 17:37:16;;;;;;;;;;;;;;;;;;5056472;28;19920;-71
2022/05/26 17:39:42;;;;;;;;;;;;;;;;;;5056665;28;19912;-71
2022/05/26 17:42:08;;;;;;;;;;;;;;;;;;5071989;28;19923;-72
2022/05/26 17:44:34;;;;;;;;;;;;;;;;;;5056538;28;19916;-72
2022/05/26 17:47:07;;;;;;;;;;;;;;;;;;5056343;28;20004;-72
2022/05/26 17:49:33;;;;;;;;;;;;;;;;;;5057174;28;19913;-72
2022/05/26 17:52:00;;;;;;;;;;;;;;;;;;5056927;28;19913;-72
2022/05/26 17:54:25;;;;;;;;;;;;;;;;;;5056066;28;19941;-72
2022/05/26 17:56:52;;;;;;;;;;;;;;;;;;5056380;28;20450;-72
2022/05/26 17:59:18;;;;;;;;;;;;;;;;;;5056373;28;19909;-72
2022/05/26 18:01:47;;;;;;;;;;;;;;;;;;5056125;28;20269;-72
2022/05/26 18:04:13;;;;;;;;;;;;;;;;;;5056280;28;20308;-72
2022/05/26 18:06:39;;;;;;;;;;;;;;;;;;5056601;28;20349;-72
2022/05/26 18:09:05;;;;;;;;;;;;;;;;;;5054791;28;19915;-71
2022/05/26 18:15:02;;;;;;;;;;;;;;;;;;5090918;27;19923;-72
2022/05/26 18:17:28;;;;;;;;;;;;;;;;;;5091115;28;20003;-72
2022/05/26 18:19:54;;;;;;;;;;;;;;;;;;5091095;28;19917;-72
2022/05/26 18:22:20;;;;;;;;;;;;;;;;;;5091068;28;19908;-72
2022/05/26 18:24:46;;;;;;;;;;;;;;;;;;5091120;28;20054;-72
2022/05/26 18:29:46;;;;;;;;;;;;;;;;;;5090785;27;20318;-72
2022/05/26 18:32:12;;;;;;;;;;;;;;;;;;5091137;28;19919;-72
2022/05/26 18:34:37;;;;;;;;;;;;;;;;;;5091027;28;19912;-71
2022/05/26 18:37:04;;;;;;;;;;;;;;;;;;5090716;28;19915;-71
2022/05/26 18:39:29;;;;;;;;;;;;;;;;;;5091213;28;19912;-71
2022/05/26 18:41:55;;;;;;;;;;;;;;;;;;5091089;28;20372;-72
2022/05/26 18:44:21;;;;;;;;;;;;;;;;;;5090627;28;19931;-72
2022/05/26 18:46:47;;;;;;;;;;;;;;;;;;5090953;28;19947;-72
2022/05/26 18:49:13;;;;;;;;;;;;;;;;;;5090851;28;19991;-72
2022/05/26 18:51:39;;;;;;;;;;;;;;;;;;5090338;28;19915;-71
2022/05/26 18:57:36;;;;;;;;;;;;;;;;;;5091320;27;20299;-72
2022/05/26 19:00:02;;;;;;;;;;;;;;;;;;5091521;28;20007;-73
2022/05/26 19:02:30;;;;;;;;;;;;;;;;;;5091157;28;20261;-72
2022/05/26 19:04:56;;;;;;;;;;;;;;;;;;5090754;28;19942;-73
2022/05/26 19:07:22;;;;;;;;;;;;;;;;;;5091002;28;19995;-72
2022/05/26 19:09:48;;;;;;;;;;;;;;;;;;5091043;28;20030;-72
2022/05/26 19:12:14;;;;;;;;;;;;;;;;;;5090777;28;20479;-71
2022/05/26 19:14:40;;;;;;;;;;;;;;;;;;5089487;28;19908;-72
2022/05/26 19:17:06;;;;;;;;;;;;;;;;;;5090840;28;19917;-73
2022/05/26 19:22:00;;;;;;;;;;;;;;;;;;5091257;28;19917;-70
2022/05/26 19:24:26;;;;;;;;;;;;;;;;;;5091326;28;19912;-72
2022/05/26 19:26:52;;;;;;;;;;;;;;;;;;5090740;28;19909;-72